sensor_id;sensor_type;location;lat;lon;timestamp;pressure;altitude;pressure_sealevel;temperature;humidity
28008;BME280;15333;50.010;20.020;2023-05-16T00:02:07;98242.00;;;10.73;100.00
28008;BME280;15333;50.010;20.020;2023-05-16T00:05:08;98245.88;;;10.69;100.00
28008;BME280;15333;50.010;20.020;2023-05-16T00:08:15;98243.41;;;10.77;100.00
28008;BME280;15333;50.010;20.020;2023-05-16T00:11:16;98239.88;;;10.76;100.00
28008;BME280;15333;50.010;20.020;2023-05-16T00:14:17;98242.16;;;10.81;100.00
28008;BME280;15333;50.010;20.020;2023-05-16T00:17:19;98249.94;;;10.84;100.00
28008;BME280;15333;50.010;20.020;2023-05-16T00:20:20;98255.81;;;10.78;100.00
28008;BME280;15333;50.010;20.020;2023-05-16T00:23:23;98263.44;;;10.82;100.00
28008;BME280;15333;50.010;20.020;2023-05-16T00:26:24;98260.84;;;10.71;100.00
28008;BME280;15333;50.010;20.020;2023-05-16T00:29:25;98267.56;;;10.66;100.00
28008;BME280;15333;50.010;20.020;2023-05-16T00:32:26;98265.22;;;10.72;100.00
28008;BME280;15333;50.010;20.020;2023-05-16T00:35:27;98266.63;;;10.55;100.00
28008;BME280;15333;50.010;20.020;2023-05-16T00:38:28;98272.00;;;10.55;100.00
28008;BME280;15333;50.010;20.020;2023-05-16T00:41:29;98259.34;;;10.57;100.00
28008;BME280;15333;50.010;20.020;2023-05-16T00:44:30;98270.75;;;10.59;100.00
28008;BME280;15333;50.010;20.020;2023-05-16T00:47:31;98266.31;;;10.70;100.00
28008;BME280;15333;50.010;20.020;2023-05-16T00:50:33;98267.25;;;10.80;100.00
28008;BME280;15333;50.010;20.020;2023-05-16T00:53:35;98271.59;;;10.81;100.00
28008;BME280;15333;50.010;20.020;2023-05-16T00:56:37;98279.91;;;10.78;100.00
28008;BME280;15333;50.010;20.020;2023-05-16T00:59:38;98281.13;;;10.74;100.00
28008;BME280;15333;50.010;20.020;2023-05-16T01:02:39;98284.81;;;10.73;100.00
28008;BME280;15333;50.010;20.020;2023-05-16T01:05:41;98284.31;;;10.68;100.00
28008;BME280;15333;50.010;20.020;2023-05-16T01:08:41;98270.69;;;10.71;100.00
28008;BME280;15333;50.010;20.020;2023-05-16T01:12:03;98269.25;;;10.67;100.00
28008;BME280;15333;50.010;20.020;2023-05-16T01:15:27;98276.38;;;10.77;100.00
28008;BME280;15333;50.010;20.020;2023-05-16T01:22:02;98283.88;;;10.63;100.00
28008;BME280;15333;50.010;20.020;2023-05-16T01:28:26;98282.50;;;10.68;100.00
28008;BME280;15333;50.010;20.020;2023-05-16T01:31:28;98276.38;;;10.56;100.00
28008;BME280;15333;50.010;20.020;2023-05-16T01:34:29;98274.00;;;10.42;100.00
28008;BME280;15333;50.010;20.020;2023-05-16T01:37:44;98275.84;;;10.31;100.00
28008;BME280;15333;50.010;20.020;2023-05-16T01:41:01;98268.44;;;10.34;100.00
28008;BME280;15333;50.010;20.020;2023-05-16T01:44:13;98272.16;;;10.43;100.00
28008;BME280;15333;50.010;20.020;2023-05-16T01:47:19;98273.03;;;10.43;100.00
28008;BME280;15333;50.010;20.020;2023-05-16T01:50:24;98276.41;;;10.45;100.00
28008;BME280;15333;50.010;20.020;2023-05-16T01:53:32;98272.75;;;10.46;100.00
28008;BME280;15333;50.010;20.020;2023-05-16T01:56:36;98271.66;;;10.49;100.00
28008;BME280;15333;50.010;20.020;2023-05-16T01:59:38;98274.72;;;10.44;100.00
28008;BME280;15333;50.010;20.020;2023-05-16T02:02:40;98273.53;;;10.37;100.00
28008;BME280;15333;50.010;20.020;2023-05-16T02:05:41;98280.38;;;10.19;100.00
28008;BME280;15333;50.010;20.020;2023-05-16T02:08:44;98272.84;;;10.02;100.00
28008;BME280;15333;50.010;20.020;2023-05-16T02:11:45;98273.63;;;9.93;100.00
28008;BME280;15333;50.010;20.020;2023-05-16T02:14:46;98272.16;;;9.89;100.00
28008;BME280;15333;50.010;20.020;2023-05-16T02:17:47;98269.59;;;9.98;100.00
28008;BME280;15333;50.010;20.020;2023-05-16T02:20:50;98266.06;;;9.98;100.00
28008;BME280;15333;50.010;20.020;2023-05-16T02:23:51;98274.31;;;10.06;100.00
28008;BME280;15333;50.010;20.020;2023-05-16T02:26:52;98270.16;;;10.02;100.00
28008;BME280;15333;50.010;20.020;2023-05-16T02:29:53;98264.97;;;9.89;100.00
28008;BME280;15333;50.010;20.020;2023-05-16T02:32:54;98268.22;;;10.15;100.00
28008;BME280;15333;50.010;20.020;2023-05-16T02:35:55;98272.59;;;10.27;100.00
28008;BME280;15333;50.010;20.020;2023-05-16T02:38:56;98276.75;;;9.98;100.00
28008;BME280;15333;50.010;20.020;2023-05-16T02:41:57;98278.50;;;9.76;100.00
28008;BME280;15333;50.010;20.020;2023-05-16T02:44:58;98280.44;;;9.74;100.00
28008;BME280;15333;50.010;20.020;2023-05-16T02:47:59;98278.50;;;9.76;100.00
28008;BME280;15333;50.010;20.020;2023-05-16T02:51:00;98284.06;;;9.73;100.00
28008;BME280;15333;50.010;20.020;2023-05-16T02:54:01;98291.13;;;9.74;100.00
28008;BME280;15333;50.010;20.020;2023-05-16T02:57:02;98295.50;;;9.75;100.00
28008;BME280;15333;50.010;20.020;2023-05-16T03:00:03;98305.84;;;9.80;100.00
28008;BME280;15333;50.010;20.020;2023-05-16T03:03:05;98307.13;;;9.97;100.00
28008;BME280;15333;50.010;20.020;2023-05-16T03:06:06;98303.22;;;10.23;100.00
28008;BME280;15333;50.010;20.020;2023-05-16T03:09:07;98306.31;;;10.50;100.00
28008;BME280;15333;50.010;20.020;2023-05-16T03:12:08;98295.84;;;10.79;100.00
28008;BME280;15333;50.010;20.020;2023-05-16T03:15:09;98290.28;;;11.33;100.00
28008;BME280;15333;50.010;20.020;2023-05-16T03:18:10;98282.88;;;11.77;100.00
28008;BME280;15333;50.010;20.020;2023-05-16T03:21:11;98279.00;;;12.00;100.00
28008;BME280;15333;50.010;20.020;2023-05-16T03:24:12;98272.53;;;12.12;100.00
28008;BME280;15333;50.010;20.020;2023-05-16T03:27:13;98267.91;;;12.53;100.00
28008;BME280;15333;50.010;20.020;2023-05-16T03:30:14;98269.19;;;12.68;99.90
28008;BME280;15333;50.010;20.020;2023-05-16T03:33:16;98285.28;;;12.68;99.76
28008;BME280;15333;50.010;20.020;2023-05-16T03:36:16;98281.34;;;12.91;98.71
28008;BME280;15333;50.010;20.020;2023-05-16T03:39:17;98289.81;;;12.97;97.71
28008;BME280;15333;50.010;20.020;2023-05-16T03:42:18;98296.78;;;14.20;89.18
28008;BME280;15333;50.010;20.020;2023-05-16T03:45:19;98293.84;;;14.40;84.19
28008;BME280;15333;50.010;20.020;2023-05-16T03:48:20;98287.72;;;14.21;85.22
28008;BME280;15333;50.010;20.020;2023-05-16T03:51:21;98296.56;;;14.03;85.54
28008;BME280;15333;50.010;20.020;2023-05-16T03:54:22;98290.06;;;14.06;87.55
28008;BME280;15333;50.010;20.020;2023-05-16T03:57:23;98289.31;;;14.31;86.85
28008;BME280;15333;50.010;20.020;2023-05-16T04:00:25;98283.59;;;15.41;82.56
28008;BME280;15333;50.010;20.020;2023-05-16T04:03:26;98290.16;;;14.77;82.20
28008;BME280;15333;50.010;20.020;2023-05-16T04:06:29;98292.13;;;15.10;81.73
28008;BME280;15333;50.010;20.020;2023-05-16T04:09:30;98292.84;;;15.20;80.31
28008;BME280;15333;50.010;20.020;2023-05-16T04:12:31;98285.25;;;15.42;78.31
28008;BME280;15333;50.010;20.020;2023-05-16T04:15:32;98297.00;;;16.93;73.11
28008;BME280;15333;50.010;20.020;2023-05-16T04:18:33;98298.03;;;17.32;67.01
28008;BME280;15333;50.010;20.020;2023-05-16T04:21:34;98297.13;;;18.27;63.78
28008;BME280;15333;50.010;20.020;2023-05-16T04:24:35;98282.03;;;18.64;59.72
28008;BME280;15333;50.010;20.020;2023-05-16T04:27:37;98292.63;;;19.19;57.56
28008;BME280;15333;50.010;20.020;2023-05-16T04:30:38;98305.00;;;18.45;58.72
28008;BME280;15333;50.010;20.020;2023-05-16T04:33:39;98299.66;;;17.90;61.29
28008;BME280;15333;50.010;20.020;2023-05-16T04:36:39;98304.09;;;17.67;63.70
28008;BME280;15333;50.010;20.020;2023-05-16T04:39:41;98317.47;;;17.52;61.71
28008;BME280;15333;50.010;20.020;2023-05-16T04:42:42;98324.22;;;16.91;64.59
28008;BME280;15333;50.010;20.020;2023-05-16T04:45:43;98323.91;;;18.22;60.02
28008;BME280;15333;50.010;20.020;2023-05-16T04:48:44;98324.06;;;17.66;60.80
28008;BME280;15333;50.010;20.020;2023-05-16T04:51:46;98329.81;;;17.63;61.36
28008;BME280;15333;50.010;20.020;2023-05-16T04:54:49;98326.28;;;18.25;60.75
28008;BME280;15333;50.010;20.020;2023-05-16T04:57:52;98327.59;;;18.91;58.09
28008;BME280;15333;50.010;20.020;2023-05-16T05:00:53;98333.66;;;19.47;55.55
28008;BME280;15333;50.010;20.020;2023-05-16T05:03:55;98332.78;;;18.78;57.50
28008;BME280;15333;50.010;20.020;2023-05-16T05:06:56;98331.59;;;18.42;57.17
28008;BME280;15333;50.010;20.020;2023-05-16T05:09:57;98339.25;;;17.58;60.61
28008;BME280;15333;50.010;20.020;2023-05-16T05:12:58;98339.28;;;17.75;63.39
28008;BME280;15333;50.010;20.020;2023-05-16T05:15:59;98335.00;;;17.96;62.26
28008;BME280;15333;50.010;20.020;2023-05-16T05:19:01;98335.28;;;18.57;60.51
28008;BME280;15333;50.010;20.020;2023-05-16T05:22:03;98323.25;;;20.03;54.13
28008;BME280;15333;50.010;20.020;2023-05-16T05:25:04;98331.72;;;20.37;52.40
28008;BME280;15333;50.010;20.020;2023-05-16T05:28:05;98337.56;;;19.82;53.63
28008;BME280;15333;50.010;20.020;2023-05-16T05:31:06;98349.53;;;19.73;52.82
28008;BME280;15333;50.010;20.020;2023-05-16T05:34:08;98348.72;;;20.96;50.84
28008;BME280;15333;50.010;20.020;2023-05-16T05:37:08;98343.00;;;21.48;50.16
28008;BME280;15333;50.010;20.020;2023-05-16T05:40:10;98340.75;;;21.52;49.75
28008;BME280;15333;50.010;20.020;2023-05-16T05:43:10;98343.56;;;20.65;50.56
28008;BME280;15333;50.010;20.020;2023-05-16T05:46:11;98333.63;;;21.79;49.01
28008;BME280;15333;50.010;20.020;2023-05-16T05:49:12;98346.84;;;19.87;51.82
28008;BME280;15333;50.010;20.020;2023-05-16T05:52:14;98353.81;;;17.74;59.21
28008;BME280;15333;50.010;20.020;2023-05-16T05:55:15;98350.44;;;17.39;61.61
28008;BME280;15333;50.010;20.020;2023-05-16T05:58:16;98346.72;;;17.73;61.78
28008;BME280;15333;50.010;20.020;2023-05-16T06:01:17;98340.97;;;17.76;62.33
28008;BME280;15333;50.010;20.020;2023-05-16T06:04:20;98341.91;;;17.99;62.90
28008;BME280;15333;50.010;20.020;2023-05-16T06:07:21;98344.59;;;18.07;63.26
28008;BME280;15333;50.010;20.020;2023-05-16T06:10:22;98347.75;;;17.64;62.63
28008;BME280;15333;50.010;20.020;2023-05-16T06:13:23;98347.06;;;17.53;61.63
28008;BME280;15333;50.010;20.020;2023-05-16T06:16:24;98348.59;;;17.23;61.69
28008;BME280;15333;50.010;20.020;2023-05-16T06:19:25;98353.47;;;17.60;61.23
28008;BME280;15333;50.010;20.020;2023-05-16T06:22:26;98348.56;;;17.80;60.31
28008;BME280;15333;50.010;20.020;2023-05-16T06:25:27;98349.91;;;17.84;61.12
28008;BME280;15333;50.010;20.020;2023-05-16T06:28:28;98355.97;;;17.94;60.98
28008;BME280;15333;50.010;20.020;2023-05-16T06:31:30;98359.53;;;18.03;61.04
28008;BME280;15333;50.010;20.020;2023-05-16T06:34:31;98366.16;;;17.44;60.86
28008;BME280;15333;50.010;20.020;2023-05-16T06:37:32;98368.00;;;16.95;62.80
28008;BME280;15333;50.010;20.020;2023-05-16T06:40:33;98355.81;;;16.99;61.73
28008;BME280;15333;50.010;20.020;2023-05-16T06:43:33;98366.97;;;16.96;63.12
28008;BME280;15333;50.010;20.020;2023-05-16T06:46:35;98365.25;;;16.87;63.22
28008;BME280;15333;50.010;20.020;2023-05-16T06:49:35;98370.81;;;16.77;63.46
28008;BME280;15333;50.010;20.020;2023-05-16T06:52:36;98372.97;;;16.65;63.99
28008;BME280;15333;50.010;20.020;2023-05-16T06:55:37;98365.16;;;16.54;62.98
28008;BME280;15333;50.010;20.020;2023-05-16T06:58:38;98379.28;;;16.82;64.07
28008;BME280;15333;50.010;20.020;2023-05-16T07:01:39;98379.41;;;16.72;64.62
28008;BME280;15333;50.010;20.020;2023-05-16T07:04:41;98387.06;;;16.93;64.60
28008;BME280;15333;50.010;20.020;2023-05-16T07:07:42;98390.97;;;16.91;64.79
28008;BME280;15333;50.010;20.020;2023-05-16T07:10:43;98396.06;;;17.02;64.82
28008;BME280;15333;50.010;20.020;2023-05-16T07:13:43;98401.16;;;17.29;63.59
28008;BME280;15333;50.010;20.020;2023-05-16T07:16:45;98407.91;;;17.09;63.46
28008;BME280;15333;50.010;20.020;2023-05-16T07:19:46;98405.88;;;17.27;62.46
28008;BME280;15333;50.010;20.020;2023-05-16T07:22:47;98401.66;;;17.25;63.60
28008;BME280;15333;50.010;20.020;2023-05-16T07:25:48;98399.47;;;17.36;60.87
28008;BME280;15333;50.010;20.020;2023-05-16T07:28:49;98392.38;;;17.51;61.87
28008;BME280;15333;50.010;20.020;2023-05-16T07:31:50;98397.47;;;17.71;61.78
28008;BME280;15333;50.010;20.020;2023-05-16T07:34:51;98404.25;;;17.75;62.94
28008;BME280;15333;50.010;20.020;2023-05-16T07:37:52;98402.31;;;18.16;62.22
28008;BME280;15333;50.010;20.020;2023-05-16T07:40:53;98397.75;;;18.16;60.37
28008;BME280;15333;50.010;20.020;2023-05-16T07:43:53;98391.22;;;18.42;60.24
28008;BME280;15333;50.010;20.020;2023-05-16T07:46:55;98400.66;;;18.54;59.61
28008;BME280;15333;50.010;20.020;2023-05-16T07:49:55;98394.56;;;18.52;59.70
28008;BME280;15333;50.010;20.020;2023-05-16T07:52:56;98404.44;;;18.36;61.02
28008;BME280;15333;50.010;20.020;2023-05-16T07:55:57;98404.34;;;18.69;60.44
28008;BME280;15333;50.010;20.020;2023-05-16T07:58:58;98409.91;;;19.06;58.68
28008;BME280;15333;50.010;20.020;2023-05-16T08:01:59;98421.50;;;18.92;60.04
28008;BME280;15333;50.010;20.020;2023-05-16T08:05:00;98429.59;;;19.00;59.31
28008;BME280;15333;50.010;20.020;2023-05-16T08:08:01;98428.75;;;19.31;57.34
28008;BME280;15333;50.010;20.020;2023-05-16T08:11:02;98431.22;;;19.86;57.13
28008;BME280;15333;50.010;20.020;2023-05-16T08:14:03;98421.56;;;19.38;55.86
28008;BME280;15333;50.010;20.020;2023-05-16T08:17:04;98408.56;;;19.56;56.62
28008;BME280;15333;50.010;20.020;2023-05-16T08:20:05;98402.69;;;20.05;52.45
28008;BME280;15333;50.010;20.020;2023-05-16T08:23:07;98392.50;;;19.69;54.19
28008;BME280;15333;50.010;20.020;2023-05-16T08:26:08;98418.28;;;20.40;52.55
28008;BME280;15333;50.010;20.020;2023-05-16T08:29:10;98421.94;;;19.80;54.53
28008;BME280;15333;50.010;20.020;2023-05-16T08:32:11;98420.84;;;20.42;53.27
28008;BME280;15333;50.010;20.020;2023-05-16T08:35:12;98429.56;;;20.00;54.57
28008;BME280;15333;50.010;20.020;2023-05-16T08:38:13;98425.75;;;20.09;53.64
28008;BME280;15333;50.010;20.020;2023-05-16T08:41:14;98437.25;;;20.11;54.53
28008;BME280;15333;50.010;20.020;2023-05-16T08:44:15;98434.03;;;20.30;53.73
28008;BME280;15333;50.010;20.020;2023-05-16T08:47:23;98437.09;;;19.75;53.57
28008;BME280;15333;50.010;20.020;2023-05-16T08:50:30;98433.16;;;20.15;53.35
28008;BME280;15333;50.010;20.020;2023-05-16T08:53:38;98440.56;;;19.83;54.34
28008;BME280;15333;50.010;20.020;2023-05-16T08:56:41;98429.59;;;20.14;53.18
28008;BME280;15333;50.010;20.020;2023-05-16T08:59:43;98427.91;;;20.28;53.15
28008;BME280;15333;50.010;20.020;2023-05-16T09:02:44;98420.53;;;20.81;53.99
28008;BME280;15333;50.010;20.020;2023-05-16T09:05:46;98425.06;;;20.74;54.54
28008;BME280;15333;50.010;20.020;2023-05-16T09:08:47;98420.00;;;19.89;53.07
28008;BME280;15333;50.010;20.020;2023-05-16T09:11:49;98427.28;;;19.43;54.96
28008;BME280;15333;50.010;20.020;2023-05-16T09:14:49;98430.59;;;19.99;54.35
28008;BME280;15333;50.010;20.020;2023-05-16T09:17:52;98429.69;;;20.21;53.50
28008;BME280;15333;50.010;20.020;2023-05-16T09:20:52;98444.69;;;20.17;54.52
28008;BME280;15333;50.010;20.020;2023-05-16T09:23:54;98443.75;;;20.10;52.26
28008;BME280;15333;50.010;20.020;2023-05-16T09:26:55;98441.16;;;20.31;52.86
28008;BME280;15333;50.010;20.020;2023-05-16T09:29:57;98432.56;;;20.71;51.10
28008;BME280;15333;50.010;20.020;2023-05-16T09:32:58;98431.97;;;20.61;53.39
28008;BME280;15333;50.010;20.020;2023-05-16T09:36:00;98423.00;;;21.11;49.12
28008;BME280;15333;50.010;20.020;2023-05-16T09:39:00;98426.63;;;20.83;49.88
28008;BME280;15333;50.010;20.020;2023-05-16T09:42:02;98420.88;;;21.07;48.43
28008;BME280;15333;50.010;20.020;2023-05-16T09:45:03;98426.75;;;21.25;47.63
28008;BME280;15333;50.010;20.020;2023-05-16T09:48:06;98422.06;;;21.04;48.80
28008;BME280;15333;50.010;20.020;2023-05-16T09:51:07;98409.13;;;21.42;47.40
28008;BME280;15333;50.010;20.020;2023-05-16T09:54:08;98412.91;;;21.41;46.81
28008;BME280;15333;50.010;20.020;2023-05-16T09:57:09;98415.06;;;21.10;46.73
28008;BME280;15333;50.010;20.020;2023-05-16T10:00:11;98409.19;;;21.28;47.22
28008;BME280;15333;50.010;20.020;2023-05-16T10:03:13;98409.66;;;20.22;49.10
28008;BME280;15333;50.010;20.020;2023-05-16T10:06:15;98413.03;;;20.24;48.05
28008;BME280;15333;50.010;20.020;2023-05-16T10:09:17;98408.28;;;19.88;49.52
28008;BME280;15333;50.010;20.020;2023-05-16T10:12:18;98406.84;;;20.30;48.97
28008;BME280;15333;50.010;20.020;2023-05-16T10:15:20;98403.28;;;20.29;49.26
28008;BME280;15333;50.010;20.020;2023-05-16T10:18:24;98398.78;;;20.81;48.39
28008;BME280;15333;50.010;20.020;2023-05-16T10:21:28;98391.75;;;21.22;46.39
28008;BME280;15333;50.010;20.020;2023-05-16T10:24:41;98394.16;;;20.96;47.93
28008;BME280;15333;50.010;20.020;2023-05-16T10:27:43;98394.16;;;21.53;46.42
28008;BME280;15333;50.010;20.020;2023-05-16T10:30:45;98395.00;;;21.54;46.88
28008;BME280;15333;50.010;20.020;2023-05-16T10:33:46;98389.31;;;22.25;45.84
28008;BME280;15333;50.010;20.020;2023-05-16T10:36:48;98384.44;;;21.93;45.71
28008;BME280;15333;50.010;20.020;2023-05-16T10:39:50;98379.72;;;21.31;46.86
28008;BME280;15333;50.010;20.020;2023-05-16T10:45:58;98372.50;;;20.88;47.50
28008;BME280;15333;50.010;20.020;2023-05-16T10:49:18;98367.56;;;21.34;47.09
28008;BME280;15333;50.010;20.020;2023-05-16T10:52:31;98365.44;;;22.27;46.46
28008;BME280;15333;50.010;20.020;2023-05-16T10:55:33;98374.94;;;22.10;46.35
28008;BME280;15333;50.010;20.020;2023-05-16T11:01:39;98376.44;;;21.64;47.86
28008;BME280;15333;50.010;20.020;2023-05-16T11:04:51;98386.84;;;21.81;47.74
28008;BME280;15333;50.010;20.020;2023-05-16T11:08:01;98392.97;;;21.62;48.12
28008;BME280;15333;50.010;20.020;2023-05-16T11:14:52;98387.84;;;21.95;47.47
28008;BME280;15333;50.010;20.020;2023-05-16T11:18:13;98380.88;;;21.65;47.64
28008;BME280;15333;50.010;20.020;2023-05-16T11:21:15;98394.72;;;21.70;48.24
28008;BME280;15333;50.010;20.020;2023-05-16T11:24:31;98392.13;;;21.62;48.40
28008;BME280;15333;50.010;20.020;2023-05-16T11:27:42;98396.69;;;21.55;48.15
28008;BME280;15333;50.010;20.020;2023-05-16T11:30:44;98397.34;;;21.35;49.20
28008;BME280;15333;50.010;20.020;2023-05-16T11:33:46;98401.50;;;21.31;49.89
28008;BME280;15333;50.010;20.020;2023-05-16T11:36:47;98397.66;;;21.26;50.21
28008;BME280;15333;50.010;20.020;2023-05-16T11:39:48;98397.09;;;21.16;49.58
28008;BME280;15333;50.010;20.020;2023-05-16T11:42:49;98395.88;;;21.18;50.21
28008;BME280;15333;50.010;20.020;2023-05-16T11:45:54;98399.63;;;20.81;50.27
28008;BME280;15333;50.010;20.020;2023-05-16T11:48:56;98397.88;;;20.44;51.51
28008;BME280;15333;50.010;20.020;2023-05-16T11:51:58;98405.09;;;20.37;52.25
28008;BME280;15333;50.010;20.020;2023-05-16T11:54:58;98406.25;;;20.20;53.65
28008;BME280;15333;50.010;20.020;2023-05-16T11:58:01;98410.19;;;20.32;52.37
28008;BME280;15333;50.010;20.020;2023-05-16T12:01:03;98413.34;;;19.91;53.54
28008;BME280;15333;50.010;20.020;2023-05-16T12:04:08;98413.03;;;19.72;55.54
28008;BME280;15333;50.010;20.020;2023-05-16T12:07:10;98412.06;;;19.65;54.45
28008;BME280;15333;50.010;20.020;2023-05-16T12:10:14;98411.94;;;19.58;54.21
28008;BME280;15333;50.010;20.020;2023-05-16T12:13:20;98412.63;;;19.60;53.40
28008;BME280;15333;50.010;20.020;2023-05-16T12:16:22;98416.66;;;19.64;53.22
28008;BME280;15333;50.010;20.020;2023-05-16T12:19:23;98409.28;;;19.50;54.88
28008;BME280;15333;50.010;20.020;2023-05-16T12:22:24;98417.38;;;19.58;54.82
28008;BME280;15333;50.010;20.020;2023-05-16T12:25:27;98420.22;;;19.34;55.34
28008;BME280;15333;50.010;20.020;2023-05-16T12:28:30;98412.75;;;19.13;55.85
28008;BME280;15333;50.010;20.020;2023-05-16T12:31:38;98413.97;;;19.10;56.82
28008;BME280;15333;50.010;20.020;2023-05-16T12:34:48;98410.28;;;19.03;56.70
28008;BME280;15333;50.010;20.020;2023-05-16T12:37:49;98411.28;;;19.02;57.19
28008;BME280;15333;50.010;20.020;2023-05-16T12:40:56;98405.88;;;19.02;57.02
28008;BME280;15333;50.010;20.020;2023-05-16T12:44:14;98407.06;;;19.00;57.67
28008;BME280;15333;50.010;20.020;2023-05-16T12:47:19;98396.81;;;18.87;57.56
28008;BME280;15333;50.010;20.020;2023-05-16T12:50:20;98398.84;;;18.85;57.98
28008;BME280;15333;50.010;20.020;2023-05-16T12:53:22;98393.16;;;18.72;57.39
28008;BME280;15333;50.010;20.020;2023-05-16T12:56:23;98394.28;;;18.77;58.44
28008;BME280;15333;50.010;20.020;2023-05-16T12:59:24;98391.41;;;18.79;59.56
28008;BME280;15333;50.010;20.020;2023-05-16T13:02:26;98393.00;;;18.65;59.58
28008;BME280;15333;50.010;20.020;2023-05-16T13:05:27;98391.50;;;18.55;59.84
28008;BME280;15333;50.010;20.020;2023-05-16T13:08:28;98392.03;;;18.58;60.86
28008;BME280;15333;50.010;20.020;2023-05-16T13:11:30;98389.81;;;18.54;62.48
28008;BME280;15333;50.010;20.020;2023-05-16T13:14:30;98385.06;;;18.48;63.48
28008;BME280;15333;50.010;20.020;2023-05-16T13:17:35;98380.78;;;18.22;65.12
28008;BME280;15333;50.010;20.020;2023-05-16T13:20:36;98383.88;;;18.11;67.39
28008;BME280;15333;50.010;20.020;2023-05-16T13:23:38;98385.28;;;17.83;68.51
28008;BME280;15333;50.010;20.020;2023-05-16T13:26:39;98391.38;;;17.77;70.75
28008;BME280;15333;50.010;20.020;2023-05-16T13:29:41;98379.88;;;17.67;72.11
28008;BME280;15333;50.010;20.020;2023-05-16T13:32:41;98380.03;;;17.57;71.80
28008;BME280;15333;50.010;20.020;2023-05-16T13:35:43;98377.00;;;17.52;72.55
28008;BME280;15333;50.010;20.020;2023-05-16T13:38:44;98372.75;;;17.49;75.15
28008;BME280;15333;50.010;20.020;2023-05-16T13:41:45;98373.78;;;17.32;77.55
28008;BME280;15333;50.010;20.020;2023-05-16T13:44:47;98377.63;;;17.13;79.32
28008;BME280;15333;50.010;20.020;2023-05-16T13:47:48;98373.03;;;16.81;81.69
28008;BME280;15333;50.010;20.020;2023-05-16T13:50:49;98383.00;;;16.39;85.16
28008;BME280;15333;50.010;20.020;2023-05-16T13:53:51;98367.75;;;16.30;90.27
28008;BME280;15333;50.010;20.020;2023-05-16T13:56:52;98378.94;;;16.43;86.77
28008;BME280;15333;50.010;20.020;2023-05-16T13:59:54;98370.56;;;16.54;88.42
28008;BME280;15333;50.010;20.020;2023-05-16T14:02:54;98371.66;;;16.77;86.51
28008;BME280;15333;50.010;20.020;2023-05-16T14:05:56;98374.75;;;17.07;86.87
28008;BME280;15333;50.010;20.020;2023-05-16T14:08:57;98373.94;;;17.31;83.14
28008;BME280;15333;50.010;20.020;2023-05-16T14:11:58;98369.72;;;17.44;82.35
28008;BME280;15333;50.010;20.020;2023-05-16T14:14:58;98366.16;;;17.52;81.57
28008;BME280;15333;50.010;20.020;2023-05-16T14:17:59;98358.56;;;17.47;80.40
28008;BME280;15333;50.010;20.020;2023-05-16T14:21:00;98353.81;;;17.57;81.81
28008;BME280;15333;50.010;20.020;2023-05-16T14:24:02;98356.53;;;17.74;81.87
28008;BME280;15333;50.010;20.020;2023-05-16T14:27:03;98356.50;;;17.90;80.08
28008;BME280;15333;50.010;20.020;2023-05-16T14:30:04;98362.94;;;17.81;79.73
28008;BME280;15333;50.010;20.020;2023-05-16T14:33:05;98351.97;;;17.74;79.39
28008;BME280;15333;50.010;20.020;2023-05-16T14:36:06;98356.88;;;17.63;79.65
28008;BME280;15333;50.010;20.020;2023-05-16T14:39:08;98353.47;;;17.28;75.77
28008;BME280;15333;50.010;20.020;2023-05-16T14:42:09;98356.84;;;17.14;75.85
28008;BME280;15333;50.010;20.020;2023-05-16T14:45:12;98364.94;;;17.06;75.20
28008;BME280;15333;50.010;20.020;2023-05-16T14:48:13;98358.53;;;16.99;74.80
28008;BME280;15333;50.010;20.020;2023-05-16T14:51:14;98362.91;;;16.92;75.50
28008;BME280;15333;50.010;20.020;2023-05-16T14:54:16;98364.09;;;16.89;77.57
28008;BME280;15333;50.010;20.020;2023-05-16T14:57:17;98348.38;;;16.93;75.08
28008;BME280;15333;50.010;20.020;2023-05-16T15:00:22;98367.28;;;16.84;76.00
28008;BME280;15333;50.010;20.020;2023-05-16T15:03:23;98354.97;;;16.90;75.48
28008;BME280;15333;50.010;20.020;2023-05-16T15:06:24;98362.91;;;16.92;76.51
28008;BME280;15333;50.010;20.020;2023-05-16T15:09:24;98364.28;;;16.96;76.58
28008;BME280;15333;50.010;20.020;2023-05-16T15:12:25;98368.47;;;16.98;76.08
28008;BME280;15333;50.010;20.020;2023-05-16T15:15:26;98368.00;;;16.95;76.37
28008;BME280;15333;50.010;20.020;2023-05-16T15:18:28;98368.69;;;16.97;77.48
28008;BME280;15333;50.010;20.020;2023-05-16T15:21:29;98364.59;;;16.93;77.74
28008;BME280;15333;50.010;20.020;2023-05-16T15:24:32;98357.84;;;16.89;78.50
28008;BME280;15333;50.010;20.020;2023-05-16T15:27:33;98351.72;;;16.78;79.67
28008;BME280;15333;50.010;20.020;2023-05-16T15:30:34;98347.25;;;16.53;82.97
28008;BME280;15333;50.010;20.020;2023-05-16T15:33:35;98358.56;;;16.15;87.35
28008;BME280;15333;50.010;20.020;2023-05-16T15:36:36;98365.69;;;15.64;91.06
28008;BME280;15333;50.010;20.020;2023-05-16T15:39:37;98371.03;;;15.20;90.89
28008;BME280;15333;50.010;20.020;2023-05-16T15:42:38;98366.25;;;14.79;93.47
28008;BME280;15333;50.010;20.020;2023-05-16T15:45:39;98374.84;;;14.47;100.00
28008;BME280;15333;50.010;20.020;2023-05-16T15:48:40;98372.06;;;14.29;100.00
28008;BME280;15333;50.010;20.020;2023-05-16T15:51:44;98366.91;;;14.18;100.00
28008;BME280;15333;50.010;20.020;2023-05-16T15:54:45;98369.72;;;14.17;100.00
28008;BME280;15333;50.010;20.020;2023-05-16T15:57:45;98367.19;;;14.15;100.00
28008;BME280;15333;50.010;20.020;2023-05-16T16:00:46;98370.03;;;14.14;100.00
28008;BME280;15333;50.010;20.020;2023-05-16T16:03:47;98370.47;;;14.09;100.00
28008;BME280;15333;50.010;20.020;2023-05-16T16:06:48;98374.09;;;14.27;100.00